Time;durP1;ratioP1;P1;durP2;ratioP2;P2;SDS_P1;SDS_P2;PMS_P1;PMS_P2;Temp;Humidity;BMP_temperature;BMP_pressure;BME280_temperature;BME280_humidity;BME280_pressure;Samples;Min_cycle;Max_cycle;Signal;HPM_P1;HPM_P2
2022/07/12 00:01:22;;;;;;;0.82;0.35;;;20.80;93.40;;;;;;5095585;28;20506;-79
2022/07/12 00:03:48;;;;;;;1.05;0.40;;;20.80;93.40;;;;;;5095249;28;20387;-80
2022/07/12 00:06:13;;;;;;;1.58;0.35;;;20.80;93.40;;;;;;5095290;28;20134;-80
2022/07/12 00:08:39;;;;;;;2.03;0.50;;;20.80;93.50;;;;;;5095195;28;20028;-80
2022/07/12 00:11:06;;;;;;;0.90;0.20;;;20.70;93.50;;;;;;5094000;28;20051;-80
2022/07/12 00:13:32;;;;;;;0.80;0.30;;;20.70;93.50;;;;;;5094979;28;20115;-80
2022/07/12 00:15:58;;;;;;;0.85;0.40;;;20.70;93.40;;;;;;5094938;28;20058;-80
2022/07/12 00:18:24;;;;;;;1.08;0.30;;;20.70;93.50;;;;;;5094840;28;20035;-80
2022/07/12 00:20:50;;;;;;;2.28;0.30;;;20.70;93.50;;;;;;5095002;28;20016;-80
2022/07/12 00:23:16;;;;;;;0.82;0.20;;;20.70;93.40;;;;;;5094932;28;20078;-78
2022/07/12 00:25:42;;;;;;;0.80;0.30;;;20.70;93.40;;;;;;5094812;28;20021;-80
2022/07/12 00:28:08;;;;;;;2.67;0.40;;;20.70;93.40;;;;;;5095422;28;20035;-79
2022/07/12 00:30:35;;;;;;;1.08;0.57;;;20.70;93.40;;;;;;5095053;28;20537;-77
2022/07/12 00:33:00;;;;;;;1.98;0.35;;;20.70;93.40;;;;;;5095048;28;20020;-80
2022/07/12 00:35:26;;;;;;;1.48;0.60;;;20.70;93.50;;;;;;5094824;28;20021;-80
2022/07/12 00:37:52;;;;;;;1.17;0.43;;;20.70;93.50;;;;;;5094613;28;20111;-80
2022/07/12 00:40:18;;;;;;;1.33;0.50;;;20.70;93.50;;;;;;5094808;28;20111;-80
2022/07/12 00:42:43;;;;;;;0.93;0.35;;;20.60;93.50;;;;;;5094422;28;20037;-80
2022/07/12 00:45:10;;;;;;;0.85;0.40;;;20.60;93.60;;;;;;5094644;28;20039;-80
2022/07/12 00:47:40;;;;;;;0.88;0.40;;;20.60;93.70;;;;;;5094013;28;20020;-80
2022/07/12 00:50:10;;;;;;;2.28;0.50;;;20.60;93.70;;;;;;5093942;28;20047;-80
2022/07/12 00:52:37;;;;;;;1.73;0.40;;;20.50;93.70;;;;;;5093833;28;20016;-80
2022/07/12 00:55:04;;;;;;;0.60;0.40;;;20.50;93.80;;;;;;5094312;28;20070;-80
2022/07/12 00:57:32;;;;;;;0.95;0.40;;;20.50;93.80;;;;;;5094048;28;20025;-80
2022/07/12 00:59:58;;;;;;;0.75;0.50;;;20.60;93.90;;;;;;5094352;28;20115;-81
2022/07/12 01:02:24;;;;;;;1.10;0.70;;;20.50;93.90;;;;;;5093337;28;20052;-80
2022/07/12 01:04:51;;;;;;;0.70;0.35;;;20.50;93.90;;;;;;5093794;28;20055;-80
2022/07/12 01:07:17;;;;;;;1.13;0.65;;;20.50;94.00;;;;;;5094124;28;20024;-80
2022/07/12 01:09:44;;;;;;;1.45;0.40;;;20.50;93.90;;;;;;5094067;28;20028;-80
2022/07/12 01:12:10;;;;;;;1.48;0.50;;;20.50;94.00;;;;;;5093861;28;20414;-81
2022/07/12 01:14:36;;;;;;;1.25;0.82;;;20.50;94.00;;;;;;5094142;28;20050;-81
2022/07/12 01:17:03;;;;;;;1.05;0.50;;;20.50;94.00;;;;;;5093774;28;20391;-81
2022/07/12 01:19:29;;;;;;;1.88;0.70;;;20.50;94.00;;;;;;5094088;28;20030;-80
2022/07/12 01:21:57;;;;;;;2.03;0.40;;;20.50;94.10;;;;;;5094027;28;20077;-80
2022/07/12 01:24:23;;;;;;;0.77;0.35;;;20.50;94.40;;;;;;5094193;28;20140;-80
2022/07/12 01:26:50;;;;;;;1.92;0.60;;;20.40;94.10;;;;;;5103213;28;20020;-79
2022/07/12 01:29:16;;;;;;;0.68;0.45;;;20.40;94.10;;;;;;5113383;28;20032;-80
2022/07/12 01:31:42;;;;;;;1.48;0.50;;;20.50;94.10;;;;;;5098589;28;20031;-80
2022/07/12 01:34:08;;;;;;;0.85;0.60;;;20.40;94.10;;;;;;5093764;28;20035;-80
2022/07/12 01:36:36;;;;;;;0.70;0.57;;;20.40;94.10;;;;;;5093961;28;20028;-80
2022/07/12 01:39:05;;;;;;;1.38;0.55;;;20.50;94.10;;;;;;5093374;28;20020;-81
2022/07/12 01:41:32;;;;;;;0.75;0.50;;;20.50;94.20;;;;;;5093502;28;20051;-80
2022/07/12 01:43:58;;;;;;;1.60;0.68;;;20.50;94.20;;;;;;5093406;28;20379;-79
2022/07/12 01:46:23;;;;;;;1.90;1.02;;;20.50;94.10;;;;;;5094301;28;20023;-79
2022/07/12 01:48:49;;;;;;;0.98;0.70;;;20.40;94.10;;;;;;5093266;28;20028;-79
2022/07/12 01:51:15;;;;;;;2.33;0.70;;;20.40;94.20;;;;;;5093546;28;20024;-79
2022/07/12 01:53:41;;;;;;;1.10;0.70;;;20.40;94.20;;;;;;5093350;28;20035;-80
2022/07/12 01:56:07;;;;;;;1.10;0.85;;;20.40;94.20;;;;;;5093465;28;20020;-80
2022/07/12 01:58:32;;;;;;;0.88;0.70;;;20.40;94.20;;;;;;5093460;28;20067;-80
2022/07/12 02:00:58;;;;;;;0.65;0.50;;;20.40;94.20;;;;;;5093341;28;20056;-80
2022/07/12 02:03:24;;;;;;;1.90;0.77;;;20.40;94.20;;;;;;5093550;28;20035;-81
2022/07/12 02:05:50;;;;;;;1.30;0.47;;;20.40;94.20;;;;;;5093665;28;20047;-81
2022/07/12 02:08:16;;;;;;;1.13;0.68;;;20.40;94.10;;;;;;5093112;28;20459;-81
2022/07/12 02:10:42;;;;;;;0.98;0.90;;;20.40;94.10;;;;;;5093617;28;20032;-81
2022/07/12 02:13:08;;;;;;;1.17;0.63;;;20.40;94.10;;;;;;5093400;28;20445;-81
2022/07/12 02:15:34;;;;;;;1.63;0.70;;;20.30;94.10;;;;;;5095624;28;20158;-81
2022/07/12 02:17:59;;;;;;;2.90;0.90;;;20.30;94.10;;;;;;5096876;28;20020;-80
2022/07/12 02:20:25;;;;;;;1.45;0.45;;;20.30;94.10;;;;;;5097393;28;20090;-80
2022/07/12 02:22:51;;;;;;;1.58;0.80;;;20.30;94.20;;;;;;5102921;28;20028;-79
2022/07/12 02:25:16;;;;;;;1.40;1.05;;;20.30;94.20;;;;;;5117204;28;20035;-80
2022/07/12 02:27:43;;;;;;;1.38;1.08;;;20.30;94.20;;;;;;5104973;28;20078;-81
2022/07/12 02:30:10;;;;;;;1.73;0.98;;;20.30;94.30;;;;;;5096664;28;20024;-81
2022/07/12 02:32:40;;;;;;;2.72;1.15;;;20.30;94.30;;;;;;5097357;28;20372;-80
2022/07/12 02:35:06;;;;;;;1.10;1.00;;;20.20;94.30;;;;;;5097166;28;20031;-80
2022/07/12 02:37:32;;;;;;;1.60;0.65;;;20.20;94.40;;;;;;5096915;28;20020;-80
2022/07/12 02:42:43;;;;;;;1.20;0.70;;;20.20;94.40;;;;;;5097043;28;20058;-80
2022/07/12 02:45:09;;;;;;;1.30;0.85;;;20.20;94.40;;;;;;5096803;28;20483;-80
2022/07/12 02:47:40;;;;;;;1.85;1.40;;;20.20;94.50;;;;;;5097127;28;20062;-79
2022/07/12 02:50:07;;;;;;;1.27;1.13;;;20.20;94.50;;;;;;5096557;28;20491;-81
2022/07/12 02:52:33;;;;;;;1.50;1.17;;;20.10;94.50;;;;;;5096539;28;20474;-80
2022/07/12 02:54:59;;;;;;;1.33;1.10;;;20.10;94.60;;;;;;5096320;28;20028;-80
2022/07/12 02:57:24;;;;;;;1.23;1.13;;;20.00;94.60;;;;;;5096234;28;20035;-80
2022/07/12 02:59:50;;;;;;;1.50;1.17;;;20.00;94.70;;;;;;5096545;28;20428;-80
2022/07/12 03:02:16;;;;;;;1.80;1.30;;;20.00;94.70;;;;;;5096378;28;20032;-79
2022/07/12 03:04:41;;;;;;;1.67;0.90;;;20.00;94.70;;;;;;5096627;28;20032;-80
2022/07/12 03:07:07;;;;;;;2.05;1.48;;;20.00;94.70;;;;;;5096338;28;20024;-80
2022/07/12 03:09:33;;;;;;;1.35;0.98;;;20.00;94.80;;;;;;5096343;28;20020;-79
2022/07/12 03:11:58;;;;;;;1.95;1.65;;;20.00;94.80;;;;;;5096088;28;20427;-79
2022/07/12 03:14:24;;;;;;;1.30;1.20;;;20.00;94.90;;;;;;5095755;28;20023;-79
2022/07/12 03:16:49;;;;;;;1.83;1.48;;;19.90;94.90;;;;;;5096067;28;20027;-79
2022/07/12 03:19:15;;;;;;;3.30;1.42;;;19.90;95.00;;;;;;5096069;28;20471;-78
2022/07/12 03:21:41;;;;;;;1.52;1.42;;;19.90;95.10;;;;;;5096421;28;20050;-80
2022/07/12 03:24:06;;;;;;;2.60;1.85;;;19.90;95.40;;;;;;5094898;28;20039;-80
2022/07/12 03:26:32;;;;;;;3.60;1.65;;;19.90;95.20;;;;;;5095572;28;20042;-79
2022/07/12 03:29:00;;;;;;;1.45;1.35;;;19.80;95.20;;;;;;5095980;28;20069;-80
2022/07/12 03:31:26;;;;;;;1.55;1.45;;;19.80;95.30;;;;;;5095901;28;20031;-80
2022/07/12 03:33:52;;;;;;;2.38;1.80;;;19.80;95.30;;;;;;5095798;28;20020;-80
2022/07/12 03:36:18;;;;;;;1.20;1.10;;;19.80;95.30;;;;;;5095803;28;20039;-80
2022/07/12 03:38:43;;;;;;;1.60;1.00;;;19.80;95.30;;;;;;5095848;28;20446;-80
2022/07/12 03:41:09;;;;;;;3.80;2.20;;;19.80;95.30;;;;;;5095491;28;20020;-80
2022/07/12 03:43:35;;;;;;;4.18;2.00;;;19.80;95.30;;;;;;5095737;28;20036;-80
2022/07/12 03:46:00;;;;;;;2.10;1.75;;;19.80;95.30;;;;;;5095484;28;20486;-80
2022/07/12 03:48:26;;;;;;;2.10;1.90;;;19.80;95.40;;;;;;5096605;28;20028;-79
2022/07/12 03:50:51;;;;;;;2.75;2.38;;;19.80;95.40;;;;;;5096423;28;20051;-81
2022/07/12 03:53:17;;;;;;;2.33;2.10;;;19.80;95.50;;;;;;5095321;28;20112;-81
2022/07/12 03:55:43;;;;;;;2.55;2.35;;;19.70;95.60;;;;;;5095103;28;20047;-79
2022/07/12 03:58:09;;;;;;;4.03;2.45;;;19.70;95.70;;;;;;5095106;28;20028;-80
2022/07/12 04:00:34;;;;;;;2.97;2.08;;;19.60;95.80;;;;;;5094857;28;20028;-80
2022/07/12 04:03:00;;;;;;;4.38;2.95;;;19.60;95.90;;;;;;5095030;28;20028;-80
2022/07/12 04:05:26;;;;;;;3.15;2.92;;;19.50;96.10;;;;;;5094977;28;20032;-80
2022/07/12 04:07:53;;;;;;;2.80;2.60;;;19.50;96.10;;;;;;5094993;28;20051;-80
2022/07/12 04:10:19;;;;;;;5.25;3.10;;;19.40;96.20;;;;;;5095129;28;20028;-80
2022/07/12 04:12:45;;;;;;;1.90;1.70;;;19.50;96.30;;;;;;5094963;28;20077;-80
2022/07/12 04:15:10;;;;;;;3.90;1.83;;;19.40;96.30;;;;;;5095047;28;20103;-79
2022/07/12 04:17:36;;;;;;;2.28;2.17;;;19.50;96.40;;;;;;5095232;28;20101;-80
2022/07/12 04:20:02;;;;;;;4.22;2.28;;;19.40;96.40;;;;;;5094710;28;20021;-80
2022/07/12 04:22:28;;;;;;;3.22;2.25;;;19.50;96.70;;;;;;5094698;28;20426;-79
2022/07/12 04:24:54;;;;;;;2.50;2.25;;;19.50;96.40;;;;;;5094725;28;20024;-79
2022/07/12 04:27:20;;;;;;;2.85;1.85;;;19.50;96.40;;;;;;5095003;28;20501;-80
2022/07/12 04:29:45;;;;;;;1.83;1.70;;;19.50;96.40;;;;;;5094897;28;20111;-80
2022/07/12 04:32:11;;;;;;;2.72;2.30;;;19.50;96.30;;;;;;5095102;28;20024;-79
2022/07/12 04:34:37;;;;;;;2.88;2.22;;;19.60;96.30;;;;;;5094645;28;20115;-80
2022/07/12 04:37:03;;;;;;;1.50;1.40;;;19.60;96.20;;;;;;5094026;28;20020;-79
2022/07/12 04:39:28;;;;;;;5.88;2.63;;;19.60;96.20;;;;;;5094121;28;20074;-79
2022/07/12 04:41:54;;;;;;;2.95;2.10;;;19.60;96.20;;;;;;5094743;28;20028;-79
2022/07/12 04:44:19;;;;;;;2.13;1.92;;;19.70;96.20;;;;;;5094546;28;20467;-79
2022/07/12 04:46:45;;;;;;;3.85;3.30;;;19.70;96.20;;;;;;5094569;28;20028;-80
2022/07/12 04:49:10;;;;;;;3.83;3.42;;;19.70;96.10;;;;;;5094427;28;20052;-79
2022/07/12 04:51:36;;;;;;;3.33;2.95;;;19.70;96.20;;;;;;5094881;28;20040;-79
2022/07/12 04:54:02;;;;;;;3.20;2.90;;;19.70;96.20;;;;;;5094110;28;20031;-79
2022/07/12 04:56:27;;;;;;;3.33;3.13;;;19.70;96.20;;;;;;5094351;28;20016;-79
2022/07/12 04:58:53;;;;;;;3.42;3.17;;;19.80;96.20;;;;;;5094355;28;20031;-80
2022/07/12 05:01:18;;;;;;;3.40;2.20;;;19.80;96.20;;;;;;5094239;28;20099;-80
2022/07/12 05:03:44;;;;;;;3.00;2.80;;;19.80;96.20;;;;;;5094163;28;20423;-80
2022/07/12 05:06:10;;;;;;;3.00;2.78;;;19.80;96.10;;;;;;5094272;28;20431;-81
2022/07/12 05:08:35;;;;;;;3.80;3.45;;;19.80;96.10;;;;;;5094409;28;20032;-79
2022/07/12 05:11:01;;;;;;;2.28;2.08;;;19.90;96.10;;;;;;5102698;28;20031;-80
2022/07/12 05:13:26;;;;;;;3.38;3.10;;;19.90;96.10;;;;;;5112493;28;20020;-81
2022/07/12 05:15:52;;;;;;;4.00;3.60;;;19.90;96.10;;;;;;5102209;28;20074;-81
2022/07/12 05:18:17;;;;;;;3.80;3.58;;;19.90;96.10;;;;;;5094135;28;20371;-81
2022/07/12 05:20:43;;;;;;;3.83;3.53;;;19.90;96.10;;;;;;5093492;28;20107;-80
2022/07/12 05:23:08;;;;;;;4.70;3.70;;;20.00;96.10;;;;;;5093169;28;20032;-79
2022/07/12 05:25:34;;;;;;;3.38;3.08;;;20.00;96.20;;;;;;5093241;28;20427;-80
2022/07/12 05:28:00;;;;;;;5.10;4.65;;;20.00;96.20;;;;;;5093431;28;20024;-80
2022/07/12 05:30:25;;;;;;;5.47;4.95;;;20.00;96.20;;;;;;5093340;28;20028;-80
2022/07/12 05:32:52;;;;;;;5.35;4.95;;;20.00;96.20;;;;;;5093468;28;20098;-81
2022/07/12 05:35:17;;;;;;;4.63;4.22;;;20.00;96.20;;;;;;5093646;28;20032;-80
2022/07/12 05:37:43;;;;;;;5.78;5.28;;;20.00;96.20;;;;;;5093757;28;20028;-80
2022/07/12 05:40:09;;;;;;;6.20;5.65;;;20.10;96.20;;;;;;5093871;28;20486;-79
2022/07/12 05:42:35;;;;;;;6.43;5.82;;;20.10;96.30;;;;;;5093701;28;20028;-80
2022/07/12 05:45:01;;;;;;;7.45;6.85;;;20.10;96.30;;;;;;5094057;28;20031;-80
2022/07/12 05:47:26;;;;;;;7.07;6.47;;;20.10;96.30;;;;;;5093727;28;20383;-80
2022/07/12 05:49:52;;;;;;;7.07;6.38;;;20.10;96.30;;;;;;5095059;28;20080;-79
2022/07/12 05:55:02;;;;;;;7.40;6.80;;;20.20;96.40;;;;;;5099004;28;20031;-79
2022/07/12 05:57:28;;;;;;;7.05;5.97;;;20.20;96.40;;;;;;5097983;28;20024;-80
2022/07/12 05:59:53;;;;;;;8.15;7.47;;;20.20;96.40;;;;;;5097657;28;20024;-80
2022/07/12 06:02:19;;;;;;;7.45;6.85;;;20.30;96.40;;;;;;5097824;28;20096;-81
2022/07/12 06:04:44;;;;;;;6.80;6.20;;;20.40;96.40;;;;;;5097873;28;20189;-80
2022/07/12 06:07:10;;;;;;;8.60;7.80;;;20.40;96.30;;;;;;5103091;28;20005;-79
2022/07/12 06:09:36;;;;;;;7.07;6.57;;;20.40;96.40;;;;;;5118327;28;20036;-80
2022/07/12 06:12:02;;;;;;;6.75;6.13;;;20.40;96.40;;;;;;5115616;28;20062;-80
2022/07/12 06:14:28;;;;;;;8.27;7.47;;;20.50;96.50;;;;;;5100608;28;20497;-80
2022/07/12 06:16:53;;;;;;;6.13;5.63;;;20.50;96.50;;;;;;5097529;28;20024;-80
2022/07/12 06:19:19;;;;;;;7.45;5.90;;;20.50;96.50;;;;;;5097482;28;20356;-81
2022/07/12 06:21:44;;;;;;;6.00;5.50;;;20.60;96.50;;;;;;5097289;28;20058;-81
2022/07/12 06:24:10;;;;;;;5.55;5.05;;;20.70;96.40;;;;;;5096967;28;20032;-81
2022/07/12 06:26:36;;;;;;;5.40;4.80;;;20.80;96.30;;;;;;5097156;28;20024;-80
2022/07/12 06:29:01;;;;;;;5.20;4.57;;;20.80;96.20;;;;;;5097304;28;20380;-81
2022/07/12 06:31:28;;;;;;;5.10;4.57;;;20.90;96.10;;;;;;5097157;28;20028;-80
2022/07/12 06:33:54;;;;;;;6.53;5.20;;;20.90;96.00;;;;;;5096663;28;20027;-80
2022/07/12 06:36:19;;;;;;;5.60;5.10;;;20.90;96.10;;;;;;5097046;28;20016;-80
2022/07/12 06:38:45;;;;;;;6.65;6.05;;;21.00;96.30;;;;;;5097278;28;20043;-80
2022/07/12 06:41:10;;;;;;;7.03;6.35;;;21.00;96.40;;;;;;5096878;28;20103;-80
2022/07/12 06:43:36;;;;;;;5.72;5.22;;;21.00;96.50;;;;;;5096928;28;20028;-80
2022/07/12 06:46:01;;;;;;;5.15;4.75;;;21.00;96.50;;;;;;5096767;28;20424;-80
2022/07/12 06:48:27;;;;;;;5.32;4.82;;;21.00;96.40;;;;;;5096884;28;20051;-79
2022/07/12 06:50:53;;;;;;;5.80;5.28;;;21.00;96.30;;;;;;5096682;28;20498;-79
2022/07/12 06:53:20;;;;;;;6.07;5.47;;;21.10;96.30;;;;;;5097001;28;20458;-79
2022/07/12 06:55:45;;;;;;;4.90;4.50;;;21.10;96.30;;;;;;5097020;28;20505;-79
2022/07/12 06:58:11;;;;;;;4.43;4.00;;;21.10;96.40;;;;;;5096572;28;20031;-80
2022/07/12 07:00:37;;;;;;;4.15;3.70;;;21.20;96.10;;;;;;5096074;28;20060;-80
2022/07/12 07:03:05;;;;;;;3.63;3.30;;;21.30;96.30;;;;;;5104859;28;20029;-80
2022/07/12 07:05:31;;;;;;;3.25;3.00;;;21.40;96.30;;;;;;5116660;28;20572;-81
2022/07/12 07:07:57;;;;;;;2.80;2.60;;;21.50;95.90;;;;;;5106309;28;20044;-80
2022/07/12 07:10:22;;;;;;;3.03;2.72;;;21.50;95.30;;;;;;5096872;28;20054;-81
2022/07/12 07:12:48;;;;;;;2.28;2.10;;;21.60;95.00;;;;;;5096599;28;20027;-79
2022/07/12 07:15:15;;;;;;;3.05;2.08;;;21.80;95.00;;;;;;5097579;28;20062;-80
2022/07/12 07:17:42;;;;;;;3.53;2.33;;;21.80;94.90;;;;;;5096319;28;20020;-81
2022/07/12 07:20:09;;;;;;;2.47;2.28;;;21.90;95.20;;;;;;5096082;28;20028;-80
2022/07/12 07:22:34;;;;;;;3.40;2.33;;;22.00;95.00;;;;;;5095594;28;20399;-80
2022/07/12 07:25:00;;;;;;;4.47;2.83;;;22.10;94.30;;;;;;5096137;28;20020;-80
2022/07/12 07:27:26;;;;;;;2.40;2.20;;;22.10;93.80;;;;;;5095781;28;20117;-80
2022/07/12 07:32:35;;;;;;;2.17;1.88;;;22.30;93.80;;;;;;5095648;28;20022;-80
2022/07/12 07:35:01;;;;;;;3.88;2.70;;;22.30;93.40;;;;;;5095613;28;20028;-81
2022/07/12 07:37:27;;;;;;;3.00;2.80;;;22.40;93.30;;;;;;5095640;28;20024;-81
2022/07/12 07:39:53;;;;;;;2.70;2.50;;;22.40;93.30;;;;;;5095717;28;20032;-80
2022/07/12 07:42:18;;;;;;;3.50;2.40;;;22.50;93.30;;;;;;5095524;28;20051;-80
2022/07/12 07:44:44;;;;;;;2.30;2.10;;;22.60;93.20;;;;;;5095091;28;20036;-82
2022/07/12 07:47:09;;;;;;;3.13;2.83;;;22.70;93.20;;;;;;5095339;28;20031;-80
2022/07/12 07:49:35;;;;;;;3.28;2.42;;;22.70;92.90;;;;;;5095235;28;20113;-81
2022/07/12 07:52:01;;;;;;;2.70;2.38;;;22.70;92.70;;;;;;5095231;28;20501;-81
2022/07/12 07:54:26;;;;;;;3.75;2.70;;;22.70;92.80;;;;;;5095141;28;20081;-81
2022/07/12 07:56:52;;;;;;;3.35;3.05;;;22.70;92.90;;;;;;5094637;28;20032;-81
2022/07/12 07:59:17;;;;;;;3.92;3.08;;;22.60;92.70;;;;;;5095199;28;20028;-80
2022/07/12 08:01:45;;;;;;;2.90;2.70;;;22.60;92.70;;;;;;5095355;28;20502;-80
2022/07/12 08:04:15;;;;;;;3.45;2.80;;;22.70;92.70;;;;;;5094519;28;20491;-80
2022/07/12 08:06:41;;;;;;;2.85;2.60;;;22.80;92.80;;;;;;5094918;28;20103;-80
2022/07/12 08:09:08;;;;;;;4.10;3.55;;;22.90;92.70;;;;;;5095230;28;20020;-81
2022/07/12 08:11:34;;;;;;;3.63;3.30;;;23.00;92.30;;;;;;5094873;28;20024;-81
2022/07/12 08:14:00;;;;;;;3.58;3.00;;;23.00;92.60;;;;;;5094301;28;20472;-81
2022/07/12 08:16:26;;;;;;;5.55;3.15;;;23.00;92.50;;;;;;5094926;28;20035;-81
2022/07/12 08:18:52;;;;;;;7.18;3.95;;;23.00;92.10;;;;;;5094861;28;20031;-80
2022/07/12 08:21:18;;;;;;;3.97;2.95;;;23.00;91.60;;;;;;5094991;28;20040;-80
2022/07/12 08:23:44;;;;;;;5.68;3.38;;;23.00;91.60;;;;;;5094987;28;20086;-80
2022/07/12 08:26:10;;;;;;;5.18;3.60;;;23.10;91.60;;;;;;5094961;28;20024;-79
2022/07/12 08:28:35;;;;;;;2.08;1.98;;;23.20;91.50;;;;;;5094698;28;20024;-80
2022/07/12 08:31:01;;;;;;;3.53;2.65;;;23.30;91.40;;;;;;5094636;28;20035;-80
2022/07/12 08:33:26;;;;;;;4.93;2.35;;;23.40;91.30;;;;;;5094573;28;20060;-81
2022/07/12 08:35:52;;;;;;;3.17;2.35;;;23.50;91.20;;;;;;5094686;28;20471;-82
2022/07/12 08:38:18;;;;;;;4.18;2.90;;;23.60;90.80;;;;;;5094486;28;20077;-81
2022/07/12 08:40:43;;;;;;;4.22;2.78;;;23.60;90.80;;;;;;5094460;28;20111;-80
2022/07/12 08:43:09;;;;;;;3.97;2.50;;;23.50;90.50;;;;;;5094595;28;20051;-81
2022/07/12 08:45:35;;;;;;;3.80;3.38;;;23.50;90.70;;;;;;5094568;28;20052;-81
2022/07/12 08:48:01;;;;;;;3.78;2.78;;;23.60;90.50;;;;;;5094378;28;20580;-81
2022/07/12 08:50:27;;;;;;;5.50;2.88;;;23.60;90.40;;;;;;5094270;28;20052;-81
2022/07/12 08:52:54;;;;;;;3.03;2.50;;;23.60;90.30;;;;;;5094803;28;20027;-80
2022/07/12 08:55:31;;;;;;;7.00;3.45;;;23.70;90.30;;;;;;5109242;28;20012;-79
2022/07/12 08:57:59;;;;;;;3.95;2.50;;;23.80;90.30;;;;;;5112431;28;20052;-80
2022/07/12 09:00:26;;;;;;;4.47;2.83;;;23.90;90.10;;;;;;5098375;28;20078;-80
2022/07/12 09:02:56;;;;;;;5.95;2.80;;;23.90;89.30;;;;;;5093777;28;20467;-80
2022/07/12 09:05:24;;;;;;;2.17;1.92;;;24.00;88.40;;;;;;5094178;28;20032;-80
2022/07/12 09:07:51;;;;;;;7.03;2.30;;;24.10;88.50;;;;;;5094053;28;20422;-80
2022/07/12 09:10:17;;;;;;;5.78;2.45;;;24.20;88.70;;;;;;5093901;28;20020;-81
2022/07/12 09:12:44;;;;;;;5.00;2.05;;;24.40;89.20;;;;;;5094027;28;20035;-81
2022/07/12 09:15:15;;;;;;;3.95;2.53;;;24.60;89.30;;;;;;5093607;28;20016;-80
2022/07/12 09:17:46;;;;;;;3.03;2.08;;;24.80;87.80;;;;;;5093849;28;20055;-80
2022/07/12 09:20:13;;;;;;;3.47;2.10;;;24.90;87.50;;;;;;5094047;28;20176;-80
2022/07/12 09:22:47;;;;;;;4.15;1.60;;;25.00;87.70;;;;;;5093917;28;20031;-80
2022/07/12 09:25:19;;;;;;;3.38;1.90;;;25.10;87.00;;;;;;5093506;28;20345;-79
2022/07/12 09:27:56;;;;;;;;;;;25.20;85.80;;;;;;5094797;28;20414;-79
2022/07/12 09:30:23;;;;;;;2.25;2.05;;;25.40;85.20;;;;;;5093805;28;19992;-80
2022/07/12 09:38:21;;;;;;;2.35;1.70;;;25.60;85.00;;;;;;5093590;28;20083;-80
2022/07/12 09:40:48;;;;;;;1.88;1.70;;;25.80;84.80;;;;;;5093587;28;20451;-81
2022/07/12 09:43:15;;;;;;;1.60;1.02;;;25.80;83.80;;;;;;5093398;28;20039;-80
2022/07/12 09:45:41;;;;;;;1.30;0.47;;;26.00;82.90;;;;;;5093661;28;20024;-80
2022/07/12 09:48:11;;;;;;;1.73;0.60;;;26.10;81.90;;;;;;5093844;28;20383;-80
2022/07/12 09:50:37;;;;;;;1.45;0.95;;;26.20;79.70;;;;;;5098342;28;20119;-79
2022/07/12 09:53:04;;;;;;;2.95;0.90;;;26.30;78.00;;;;;;5103909;28;20020;-80
2022/07/12 09:55:34;;;;;;;4.80;0.90;;;26.30;78.20;;;;;;5093472;28;20077;-80
2022/07/12 09:58:02;;;;;;;2.30;1.23;;;26.30;78.30;;;;;;5093581;28;20021;-80
2022/07/12 10:00:28;;;;;;;1.60;0.90;;;26.40;78.10;;;;;;5093705;28;20028;-79
2022/07/12 10:02:55;;;;;;;2.13;0.90;;;26.50;77.80;;;;;;5093030;28;20428;-80
2022/07/12 10:05:24;;;;;;;1.98;1.02;;;26.60;78.40;;;;;;5093410;28;20032;-81
2022/07/12 10:07:50;;;;;;;1.40;0.90;;;26.70;77.80;;;;;;5093644;28;20020;-81
2022/07/12 10:10:17;;;;;;;2.22;0.70;;;26.80;77.50;;;;;;5093207;28;20085;-80
2022/07/12 10:12:43;;;;;;;1.80;0.68;;;26.90;76.30;;;;;;5093272;28;20466;-80
2022/07/12 10:15:17;;;;;;;3.88;0.73;;;27.00;76.40;;;;;;5093408;28;20020;-80
2022/07/12 10:17:55;;;;;;;1.48;0.50;;;27.00;75.40;;;;;;5093506;28;20020;-80
2022/07/12 10:20:23;;;;;;;2.42;0.60;;;27.10;75.40;;;;;;5093411;28;20031;-81
2022/07/12 10:22:49;;;;;;;1.00;0.70;;;27.10;73.50;;;;;;5093212;28;20027;-82
2022/07/12 10:25:32;;;;;;;1.70;0.90;;;27.10;72.80;;;;;;5093795;28;20054;-82
2022/07/12 10:27:59;;;;;;;3.70;0.50;;;27.20;72.80;;;;;;5093803;28;20020;-82
2022/07/12 10:30:25;;;;;;;2.45;0.50;;;27.30;73.10;;;;;;5093466;28;20035;-82
2022/07/12 10:32:56;;;;;;;1.17;0.40;;;27.40;72.90;;;;;;5093739;28;20425;-81
2022/07/12 10:35:27;;;;;;;5.03;0.50;;;27.50;72.30;;;;;;5094052;28;20364;-82
2022/07/12 10:38:17;;;;;;;4.20;0.43;;;27.60;71.20;;;;;;5097126;28;20082;-81
2022/07/12 10:40:44;;;;;;;1.02;0.30;;;27.60;71.30;;;;;;5097243;28;20024;-81
2022/07/12 10:43:10;;;;;;;3.30;0.90;;;27.70;72.20;;;;;;5097011;28;20032;-81
2022/07/12 10:45:38;;;;;;;3.83;0.82;;;27.80;70.80;;;;;;5096642;28;20024;-82
2022/07/12 10:48:04;;;;;;;3.17;0.60;;;27.80;70.50;;;;;;5105236;28;20076;-80
2022/07/12 10:51:00;;;;;;;1.40;0.70;;;27.70;70.80;;;;;;5099835;28;20079;-82
2022/07/12 10:53:38;;;;;;;1.38;0.63;;;27.70;70.20;;;;;;5096937;28;20020;-81
2022/07/12 10:56:06;;;;;;;2.25;0.55;;;27.80;70.20;;;;;;5096390;28;20106;-81
2022/07/12 10:58:43;;;;;;;3.72;1.00;;;27.80;70.20;;;;;;5096399;28;20024;-81
2022/07/12 11:01:10;;;;;;;3.88;0.60;;;27.90;69.70;;;;;;5096233;28;20499;-81
2022/07/12 11:03:41;;;;;;;1.60;0.50;;;27.90;69.70;;;;;;5096578;28;20047;-80
2022/07/12 11:06:13;;;;;;;2.10;0.70;;;28.00;69.50;;;;;;5095983;28;20471;-81
2022/07/12 11:08:47;;;;;;;3.92;0.70;;;27.90;67.90;;;;;;5096036;28;20467;-81
2022/07/12 11:11:13;;;;;;;1.83;1.00;;;27.90;68.60;;;;;;5096141;28;20467;-81
2022/07/12 11:13:38;;;;;;;3.20;0.93;;;27.90;68.90;;;;;;5096270;28;20032;-81
2022/07/12 11:16:04;;;;;;;2.67;0.40;;;27.90;69.20;;;;;;5096104;28;20023;-81
2022/07/12 11:18:31;;;;;;;4.60;1.10;;;28.00;70.40;;;;;;5095893;28;20031;-81
2022/07/12 11:21:02;;;;;;;6.40;1.30;;;28.20;69.60;;;;;;5096037;28;20016;-81
2022/07/12 11:23:28;;;;;;;5.18;1.13;;;28.30;68.10;;;;;;5095878;28;20522;-81
2022/07/12 11:26:04;;;;;;;1.80;0.77;;;28.40;69.30;;;;;;5095749;28;20035;-81
2022/07/12 11:28:31;;;;;;;2.38;1.98;;;28.50;68.00;;;;;;5095832;28;20384;-81
2022/07/12 11:31:13;;;;;;;3.17;1.00;;;28.50;67.30;;;;;;5095765;28;20017;-81
2022/07/12 11:33:44;;;;;;;3.47;0.95;;;28.40;67.30;;;;;;5095675;28;20494;-81
2022/07/12 11:36:11;;;;;;;5.72;1.42;;;28.40;67.70;;;;;;5095624;28;20491;-81
2022/07/12 11:38:38;;;;;;;3.45;1.92;;;28.50;67.60;;;;;;5095797;28;20035;-81
2022/07/12 11:41:05;;;;;;;1.50;0.90;;;28.40;67.10;;;;;;5095622;28;20376;-82
2022/07/12 11:43:32;;;;;;;1.40;1.20;;;28.40;66.70;;;;;;5099156;28;20040;-80
2022/07/12 11:45:59;;;;;;;4.35;1.33;;;28.40;67.00;;;;;;5104492;28;20020;-81
2022/07/12 11:48:25;;;;;;;3.13;1.50;;;28.50;66.90;;;;;;5095316;28;20024;-81
2022/07/12 11:50:52;;;;;;;2.70;1.90;;;28.60;66.50;;;;;;5095093;28;20068;-82
2022/07/12 11:53:25;;;;;;;3.03;1.67;;;28.60;65.80;;;;;;5095554;28;20021;-82
2022/07/12 11:55:55;;;;;;;2.35;1.67;;;28.60;65.50;;;;;;5095692;28;20031;-81
2022/07/12 11:58:21;;;;;;;2.35;1.33;;;28.50;66.60;;;;;;5095370;28;20023;-80
2022/07/12 12:00:47;;;;;;;5.75;1.90;;;28.50;66.80;;;;;;5094885;28;20027;-80
2022/07/12 12:03:16;;;;;;;1.45;1.35;;;28.60;66.40;;;;;;5094857;28;20032;-80
2022/07/12 12:05:42;;;;;;;4.47;0.90;;;28.50;64.40;;;;;;5095312;28;20055;-80
2022/07/12 12:08:10;;;;;;;4.90;2.58;;;28.60;64.30;;;;;;5095295;28;20024;-81
2022/07/12 12:10:36;;;;;;;2.78;2.42;;;28.60;63.60;;;;;;5095256;28;20444;-81
2022/07/12 12:13:02;;;;;;;1.73;0.90;;;28.60;63.50;;;;;;5094802;28;20059;-82
2022/07/12 12:15:32;;;;;;;1.00;0.40;;;28.60;64.80;;;;;;5094923;28;20032;-81
2022/07/12 12:18:04;;;;;;;2.85;1.75;;;28.80;67.10;;;;;;5095279;28;20028;-81
2022/07/12 12:20:31;;;;;;;1.75;1.60;;;28.90;65.10;;;;;;5095250;28;20077;-81
2022/07/12 12:22:59;;;;;;;3.25;1.02;;;28.90;64.30;;;;;;5094398;28;20472;-81
2022/07/12 12:25:26;;;;;;;0.82;0.63;;;28.90;63.00;;;;;;5095190;28;20024;-81
2022/07/12 12:28:03;;;;;;;1.27;0.70;;;29.00;62.30;;;;;;5095131;28;20020;-81
2022/07/12 12:30:33;;;;;;;1.88;1.33;;;29.00;61.10;;;;;;5094710;28;20040;-81
2022/07/12 12:33:00;;;;;;;1.85;0.93;;;29.00;60.40;;;;;;5095201;28;20024;-81
2022/07/12 12:35:38;;;;;;;2.08;0.80;;;29.00;60.40;;;;;;5094922;28;20061;-81
2022/07/12 12:38:11;;;;;;;2.88;1.50;;;29.00;62.30;;;;;;5094867;28;20493;-81
2022/07/12 12:40:37;;;;;;;3.92;1.60;;;29.10;62.00;;;;;;5112449;28;20059;-81
2022/07/12 12:43:10;;;;;;;2.85;1.30;;;29.20;62.40;;;;;;5112639;28;20020;-81
2022/07/12 12:45:48;;;;;;;3.28;1.00;;;29.20;62.60;;;;;;5094711;28;20413;-81
2022/07/12 12:48:24;;;;;;;2.83;0.88;;;29.20;62.80;;;;;;5094485;28;20027;-81
2022/07/12 12:51:01;;;;;;;1.08;0.90;;;29.20;63.10;;;;;;5094297;28;20119;-82
2022/07/12 12:53:27;;;;;;;2.75;1.60;;;29.30;63.00;;;;;;5094679;28;20113;-81
2022/07/12 12:55:55;;;;;;;3.00;1.08;;;29.30;62.00;;;;;;5094401;28;20097;-81
2022/07/12 12:58:23;;;;;;;2.95;0.80;;;29.40;62.60;;;;;;5093739;28;20034;-82
2022/07/12 13:00:51;;;;;;;3.85;1.00;;;29.40;59.80;;;;;;5093751;28;20036;-82